createdAt,value
2017-03-22T00:00:12.758Z,1009.04
2017-03-22T00:00:53.282Z,1009.04
2017-03-22T00:01:33.802Z,1009.06
2017-03-22T00:02:14.333Z,1009.04
2017-03-22T00:02:54.869Z,1009.05
2017-03-22T00:03:35.393Z,1009.05
2017-03-22T00:04:15.906Z,1009.03
2017-03-22T00:04:56.431Z,1009.05
2017-03-22T00:05:36.969Z,1009
2017-03-22T00:06:17.483Z,1009.02
2017-03-22T00:06:58.016Z,1009
2017-03-22T00:07:38.524Z,1009
2017-03-22T00:08:19.051Z,1009.03
2017-03-22T00:08:59.570Z,1009.02
2017-03-22T00:09:40.079Z,1009
2017-03-22T00:10:20.598Z,1008.94
2017-03-22T00:11:01.114Z,1008.97
2017-03-22T00:11:41.636Z,1008.97
2017-03-22T00:12:22.153Z,1008.97
2017-03-22T00:13:02.678Z,1008.95
2017-03-22T00:13:43.215Z,1008.94
2017-03-22T00:14:23.734Z,1008.95
2017-03-22T00:15:04.258Z,1008.9
2017-03-22T00:15:44.780Z,1008.9
2017-03-22T00:16:25.299Z,1008.86
2017-03-22T00:17:05.817Z,1008.85
2017-03-22T00:17:46.311Z,1008.85
2017-03-22T00:18:26.837Z,1008.85
2017-03-22T00:19:07.386Z,1008.84
2017-03-22T00:19:47.920Z,1008.83
2017-03-22T00:20:28.429Z,1008.82
2017-03-22T00:21:08.947Z,1008.79
2017-03-22T00:21:49.474Z,1008.79
2017-03-22T00:22:29.973Z,1008.8
2017-03-22T00:23:10.493Z,1008.78
2017-03-22T00:23:51.015Z,1008.77
2017-03-22T00:24:31.530Z,1008.78
2017-03-22T00:25:12.051Z,1008.77
2017-03-22T00:25:52.569Z,1008.79
2017-03-22T00:26:33.079Z,1008.76
2017-03-22T00:27:13.581Z,1008.79
2017-03-22T00:27:54.115Z,1008.82
2017-03-22T00:28:34.609Z,1008.77
2017-03-22T00:29:15.138Z,1008.78
2017-03-22T00:29:55.669Z,1008.76
2017-03-22T00:30:36.197Z,1008.76
2017-03-22T00:31:16.732Z,1008.79
2017-03-22T00:31:57.252Z,1008.77
2017-03-22T00:32:37.782Z,1008.77
2017-03-22T00:33:18.311Z,1008.73
2017-03-22T00:33:58.835Z,1008.76
2017-03-22T00:34:39.360Z,1008.73
2017-03-22T00:35:19.896Z,1008.78
2017-03-22T00:36:00.430Z,1008.72
2017-03-22T00:36:40.933Z,1008.76
2017-03-22T00:37:21.461Z,1008.75
2017-03-22T00:38:01.989Z,1008.73
2017-03-22T00:38:42.509Z,1008.76
2017-03-22T00:39:23.018Z,1008.73
2017-03-22T00:40:03.540Z,1008.77
2017-03-22T00:40:44.059Z,1008.78
2017-03-22T00:41:24.577Z,1008.81
2017-03-22T00:42:05.114Z,1008.81
2017-03-22T00:42:45.633Z,1008.82
2017-03-22T00:43:26.123Z,1008.83
2017-03-22T00:44:06.652Z,1008.8
2017-03-22T00:44:47.183Z,1008.78
2017-03-22T00:45:27.702Z,1008.79
2017-03-22T00:46:08.238Z,1008.77
2017-03-22T00:46:48.749Z,1008.76
2017-03-22T00:47:29.280Z,1008.77
2017-03-22T00:48:09.790Z,1008.77
2017-03-22T00:48:50.299Z,1008.75
2017-03-22T00:49:30.813Z,1008.77
2017-03-22T00:50:11.339Z,1008.73
2017-03-22T00:50:51.868Z,1008.77
2017-03-22T00:51:32.400Z,1008.81
2017-03-22T00:52:12.918Z,1008.73
2017-03-22T00:52:53.438Z,1008.72
2017-03-22T00:53:33.949Z,1008.76
2017-03-22T00:54:14.463Z,1008.77
2017-03-22T00:54:54.974Z,1008.74
2017-03-22T00:55:35.488Z,1008.72
2017-03-22T00:56:16.001Z,1008.7
2017-03-22T00:56:56.512Z,1008.69
2017-03-22T00:57:37.029Z,1008.68
2017-03-22T00:58:17.550Z,1008.69
2017-03-22T00:58:58.057Z,1008.68
2017-03-22T00:59:38.581Z,1008.72
2017-03-22T01:00:19.094Z,1008.71
2017-03-22T01:00:59.610Z,1008.69
2017-03-22T01:01:40.104Z,1008.68
2017-03-22T01:02:20.606Z,1008.66
2017-03-22T01:03:01.134Z,1008.7
2017-03-22T01:03:41.644Z,1008.66
2017-03-22T01:04:22.170Z,1008.68
2017-03-22T01:05:02.671Z,1008.72
2017-03-22T01:05:43.170Z,1008.67
2017-03-22T01:06:23.690Z,1008.71
2017-03-22T01:07:04.223Z,1008.7
2017-03-22T01:07:44.731Z,1008.72
2017-03-22T01:08:25.266Z,1008.73
2017-03-22T01:09:05.800Z,1008.74
2017-03-22T01:09:46.330Z,1008.76
2017-03-22T01:10:26.826Z,1008.75
2017-03-22T01:11:07.347Z,1008.76
2017-03-22T01:11:47.865Z,1008.76
2017-03-22T01:12:28.371Z,1008.72
2017-03-22T01:13:08.898Z,1008.75
2017-03-22T01:13:49.423Z,1008.75
2017-03-22T01:14:29.923Z,1008.77
2017-03-22T01:15:10.446Z,1008.75
2017-03-22T01:15:51.017Z,1008.75
2017-03-22T01:16:31.542Z,1008.8
2017-03-22T01:17:12.066Z,1008.78
2017-03-22T01:17:52.581Z,1008.73
2017-03-22T01:18:33.109Z,1008.74
2017-03-22T01:19:13.631Z,1008.74
2017-03-22T01:19:54.141Z,1008.76
2017-03-22T01:20:34.669Z,1008.74
2017-03-22T01:21:15.188Z,1008.72
2017-03-22T01:21:55.713Z,1008.72
2017-03-22T01:22:36.215Z,1008.74
2017-03-22T01:23:16.745Z,1008.74
2017-03-22T01:23:57.274Z,1008.71
2017-03-22T01:24:37.798Z,1008.76
2017-03-22T01:25:18.319Z,1008.72
2017-03-22T01:25:58.839Z,1008.73
2017-03-22T01:26:39.374Z,1008.74
2017-03-22T01:27:19.898Z,1008.78
2017-03-22T01:28:00.415Z,1008.72
2017-03-22T01:28:40.920Z,1008.72
2017-03-22T01:29:21.418Z,1008.71
2017-03-22T01:30:01.922Z,1008.69
2017-03-22T01:30:42.444Z,1008.69
2017-03-22T01:31:22.982Z,1008.72
2017-03-22T01:32:03.513Z,1008.68
2017-03-22T01:32:44.043Z,1008.71
2017-03-22T01:33:24.565Z,1008.72
2017-03-22T01:34:05.085Z,1008.68
2017-03-22T01:34:45.587Z,1008.69
2017-03-22T01:35:26.112Z,1008.68
2017-03-22T01:36:06.614Z,1008.68
2017-03-22T01:36:47.132Z,1008.7
2017-03-22T01:37:27.627Z,1008.7
2017-03-22T01:38:08.136Z,1008.68
2017-03-22T01:38:48.631Z,1008.64
2017-03-22T01:39:29.143Z,1008.65
2017-03-22T01:40:09.668Z,1008.65
2017-03-22T01:40:50.192Z,1008.64
2017-03-22T01:41:30.689Z,1008.64
2017-03-22T01:42:11.208Z,1008.64
2017-03-22T01:42:51.703Z,1008.64
2017-03-22T01:43:32.224Z,1008.65
2017-03-22T01:44:12.735Z,1008.67
2017-03-22T01:44:53.259Z,1008.63
2017-03-22T01:45:33.778Z,1008.66
2017-03-22T01:46:14.310Z,1008.65
2017-03-22T01:46:54.827Z,1008.65
2017-03-22T01:47:35.341Z,1008.66
2017-03-22T01:48:15.878Z,1008.66
2017-03-22T01:48:56.392Z,1008.65
2017-03-22T01:49:36.923Z,1008.65
2017-03-22T01:50:17.434Z,1008.67
2017-03-22T01:50:57.949Z,1008.66
2017-03-22T01:51:38.464Z,1008.64
2017-03-22T01:52:18.989Z,1008.64
2017-03-22T01:52:59.489Z,1008.64
2017-03-22T01:53:39.997Z,1008.6
2017-03-22T01:54:20.502Z,1008.62
2017-03-22T01:55:01.015Z,1008.61
2017-03-22T01:55:41.539Z,1008.57
2017-03-22T01:56:22.065Z,1008.61
2017-03-22T01:57:02.568Z,1008.59
2017-03-22T01:57:43.077Z,1008.56
2017-03-22T01:58:23.592Z,1008.55
2017-03-22T01:59:04.111Z,1008.52
2017-03-22T01:59:44.641Z,1008.5
2017-03-22T02:00:25.144Z,1008.53
2017-03-22T02:01:05.661Z,1008.52
2017-03-22T02:01:46.205Z,1008.5
2017-03-22T02:02:26.733Z,1008.49
2017-03-22T02:03:07.245Z,1008.49
2017-03-22T02:03:47.777Z,1008.47
2017-03-22T02:04:28.302Z,1008.46
2017-03-22T02:05:08.837Z,1008.47
2017-03-22T02:05:49.371Z,1008.44
2017-03-22T02:06:29.890Z,1008.46
2017-03-22T02:07:10.418Z,1008.44
2017-03-22T02:07:50.949Z,1008.44
2017-03-22T02:08:31.490Z,1008.46
2017-03-22T02:09:12.024Z,1008.5
2017-03-22T02:09:52.549Z,1008.48
2017-03-22T02:10:33.063Z,1008.46
2017-03-22T02:11:13.603Z,1008.47
2017-03-22T02:11:54.134Z,1008.52
2017-03-22T02:12:34.642Z,1008.51
2017-03-22T02:13:15.161Z,1008.5
2017-03-22T02:13:55.690Z,1008.5
2017-03-22T02:14:36.189Z,1008.55
2017-03-22T02:15:16.711Z,1008.48
2017-03-22T02:15:57.223Z,1008.51
2017-03-22T02:16:37.747Z,1008.54
2017-03-22T02:17:18.258Z,1008.53
2017-03-22T02:17:58.797Z,1008.55
2017-03-22T02:18:39.330Z,1008.54
2017-03-22T02:19:19.837Z,1008.52
2017-03-22T02:20:00.362Z,1008.52
2017-03-22T02:20:40.878Z,1008.54
2017-03-22T02:21:21.403Z,1008.48
2017-03-22T02:22:01.908Z,1008.55
2017-03-22T02:22:42.430Z,1008.53
2017-03-22T02:23:22.952Z,1008.53
2017-03-22T02:24:03.461Z,1008.52
2017-03-22T02:24:43.996Z,1008.53
2017-03-22T02:25:24.531Z,1008.51
2017-03-22T02:26:05.076Z,1008.49
2017-03-22T02:26:45.622Z,1008.51
2017-03-22T02:27:26.113Z,1008.49
2017-03-22T02:28:06.633Z,1008.49
2017-03-22T02:28:47.152Z,1008.52
2017-03-22T02:29:27.708Z,1008.5
2017-03-22T02:30:08.235Z,1008.5
2017-03-22T02:30:48.759Z,1008.53
2017-03-22T02:31:29.280Z,1008.56
2017-03-22T02:32:09.808Z,1008.54
2017-03-22T02:32:50.270Z,1008.57
2017-03-22T02:33:30.756Z,1008.51
2017-03-22T02:34:11.348Z,1008.54
2017-03-22T02:34:51.809Z,1008.56
2017-03-22T02:35:32.348Z,1008.56
2017-03-22T02:36:12.871Z,1008.55
2017-03-22T02:37:00.231Z,1008.57
2017-03-22T02:37:40.810Z,1008.6
2017-03-22T02:38:21.309Z,1008.56
2017-03-22T02:39:01.830Z,1008.62
2017-03-22T02:39:42.353Z,1008.62
2017-03-22T02:40:22.892Z,1008.62
2017-03-22T02:41:03.426Z,1008.62
2017-03-22T02:41:43.967Z,1008.63
2017-03-22T02:42:24.510Z,1008.62
2017-03-22T02:43:05.070Z,1008.65
2017-03-22T02:43:45.615Z,1008.62
2017-03-22T02:44:26.130Z,1008.61
2017-03-22T02:45:06.674Z,1008.62
2017-03-22T02:45:47.217Z,1008.62
2017-03-22T02:46:27.728Z,1008.6
2017-03-22T02:47:08.262Z,1008.63
2017-03-22T02:47:48.791Z,1008.63
2017-03-22T02:48:29.335Z,1008.63
2017-03-22T02:49:09.853Z,1008.6
2017-03-22T02:49:50.336Z,1008.62
2017-03-22T02:50:30.862Z,1008.62
2017-03-22T02:51:11.384Z,1008.66
2017-03-22T02:51:51.865Z,1008.63
2017-03-22T02:52:32.341Z,1008.63
2017-03-22T02:53:12.852Z,1008.63
2017-03-22T02:53:53.387Z,1008.64
2017-03-22T02:54:33.832Z,1008.65
2017-03-22T02:55:14.336Z,1008.59
2017-03-22T02:55:54.878Z,1008.65
2017-03-22T02:56:35.401Z,1008.62
2017-03-22T02:57:15.925Z,1008.64
2017-03-22T02:57:56.483Z,1008.7
2017-03-22T02:58:37.039Z,1008.65
2017-03-22T02:59:17.580Z,1008.66
2017-03-22T02:59:58.157Z,1008.64
2017-03-22T03:00:38.702Z,1008.66
2017-03-22T03:01:19.215Z,1008.67
2017-03-22T03:01:59.735Z,1008.68
2017-03-22T03:02:40.216Z,1008.67
2017-03-22T03:03:20.775Z,1008.67
2017-03-22T03:04:01.236Z,1008.65
2017-03-22T03:04:41.824Z,1008.63
2017-03-22T03:05:22.381Z,1008.69
2017-03-22T03:06:02.907Z,1008.63
2017-03-22T03:06:43.435Z,1008.67
2017-03-22T03:07:23.993Z,1008.7
2017-03-22T03:08:04.543Z,1008.68
2017-03-22T03:08:45.080Z,1008.69
2017-03-22T03:09:25.615Z,1008.66
2017-03-22T03:10:06.092Z,1008.73
2017-03-22T03:10:46.640Z,1008.71
2017-03-22T03:11:27.174Z,1008.71
2017-03-22T03:12:07.692Z,1008.69
2017-03-22T03:12:48.246Z,1008.73
2017-03-22T03:13:28.796Z,1008.72
2017-03-22T03:14:09.358Z,1008.74
2017-03-22T03:14:49.917Z,1008.73
2017-03-22T03:15:30.440Z,1008.74
2017-03-22T03:16:10.938Z,1008.75
2017-03-22T03:16:51.472Z,1008.73
2017-03-22T03:17:31.965Z,1008.72
2017-03-22T03:18:12.490Z,1008.72
2017-03-22T03:18:53.048Z,1008.7
2017-03-22T03:19:33.523Z,1008.72
2017-03-22T03:20:14.029Z,1008.74
2017-03-22T03:20:54.544Z,1008.74
2017-03-22T03:21:35.050Z,1008.73
2017-03-22T03:22:15.582Z,1008.76
2017-03-22T03:22:56.107Z,1008.71
2017-03-22T03:23:36.663Z,1008.72
2017-03-22T03:24:17.148Z,1008.74
2017-03-22T03:24:57.663Z,1008.73
2017-03-22T03:25:38.255Z,1008.69
2017-03-22T03:26:18.742Z,1008.73
2017-03-22T03:26:59.285Z,1008.73
2017-03-22T03:27:39.771Z,1008.74
2017-03-22T03:28:20.295Z,1008.75
2017-03-22T03:29:00.831Z,1008.74
2017-03-22T03:29:41.311Z,1008.77
2017-03-22T03:30:21.856Z,1008.8
2017-03-22T03:31:02.356Z,1008.78
2017-03-22T03:31:42.870Z,1008.78
2017-03-22T03:32:23.366Z,1008.8
2017-03-22T03:33:03.890Z,1008.8
2017-03-22T03:33:44.371Z,1008.8
2017-03-22T03:34:24.878Z,1008.81
2017-03-22T03:35:05.381Z,1008.81
2017-03-22T03:35:45.891Z,1008.86
2017-03-22T03:36:26.440Z,1008.87
2017-03-22T03:37:06.984Z,1008.86
2017-03-22T03:37:47.515Z,1008.86
2017-03-22T03:38:28.025Z,1008.84
2017-03-22T03:39:08.566Z,1008.87
2017-03-22T03:39:49.112Z,1008.87
2017-03-22T03:40:29.637Z,1008.9
2017-03-22T03:41:10.175Z,1008.9
2017-03-22T03:41:50.702Z,1008.88
2017-03-22T03:42:31.211Z,1008.91
2017-03-22T03:43:11.783Z,1008.9
2017-03-22T03:43:52.298Z,1008.88
2017-03-22T03:44:32.782Z,1008.86
2017-03-22T03:45:13.339Z,1008.88
2017-03-22T03:45:53.813Z,1008.89
2017-03-22T03:46:34.345Z,1008.85
2017-03-22T03:47:14.896Z,1008.84
2017-03-22T03:47:55.438Z,1008.85
2017-03-22T03:48:35.969Z,1008.86
2017-03-22T03:49:16.485Z,1008.85
2017-03-22T03:49:56.969Z,1008.82
2017-03-22T03:50:37.480Z,1008.8
2017-03-22T03:51:18.034Z,1008.81
2017-03-22T03:51:58.614Z,1008.79
2017-03-22T03:52:39.172Z,1008.8
2017-03-22T03:53:19.721Z,1008.83
2017-03-22T03:54:00.278Z,1008.8
2017-03-22T03:54:40.799Z,1008.8
2017-03-22T03:55:21.316Z,1008.76
2017-03-22T03:56:01.839Z,1008.78
2017-03-22T03:56:42.339Z,1008.74
2017-03-22T03:57:22.883Z,1008.79
2017-03-22T03:58:03.413Z,1008.75
2017-03-22T03:58:43.955Z,1008.76
2017-03-22T03:59:24.493Z,1008.74
2017-03-22T04:00:05.042Z,1008.73
2017-03-22T04:00:45.587Z,1008.77
2017-03-22T04:01:26.179Z,1008.76
2017-03-22T04:02:06.695Z,1008.74
2017-03-22T04:02:47.220Z,1008.74
2017-03-22T04:03:27.754Z,1008.71
2017-03-22T04:04:08.272Z,1008.69
2017-03-22T04:04:48.741Z,1008.7
2017-03-22T04:05:29.264Z,1008.69
2017-03-22T04:06:09.752Z,1008.68
2017-03-22T04:06:50.280Z,1008.67
2017-03-22T04:07:30.840Z,1008.67
2017-03-22T04:08:11.331Z,1008.66
2017-03-22T04:08:51.882Z,1008.67
2017-03-22T04:09:32.387Z,1008.68
2017-03-22T04:10:12.916Z,1008.66
2017-03-22T04:10:53.416Z,1008.68
2017-03-22T04:11:33.925Z,1008.69
2017-03-22T04:12:14.456Z,1008.66
2017-03-22T04:12:54.984Z,1008.65
2017-03-22T04:13:35.514Z,1008.69
2017-03-22T04:14:16.031Z,1008.68
2017-03-22T04:14:56.555Z,1008.66
2017-03-22T04:15:37.118Z,1008.67
2017-03-22T04:16:17.612Z,1008.7
2017-03-22T04:16:58.141Z,1008.66
2017-03-22T04:17:38.666Z,1008.68
2017-03-22T04:18:19.205Z,1008.65
2017-03-22T04:18:59.737Z,1008.65
2017-03-22T04:19:40.256Z,1008.68
2017-03-22T04:20:20.780Z,1008.68
2017-03-22T04:21:01.287Z,1008.7
2017-03-22T04:21:41.830Z,1008.7
2017-03-22T04:22:22.351Z,1008.7
2017-03-22T04:23:02.887Z,1008.7
2017-03-22T04:23:43.377Z,1008.7
2017-03-22T04:24:23.897Z,1008.72
2017-03-22T04:25:04.524Z,1008.7
2017-03-22T04:25:45.048Z,1008.68
2017-03-22T04:26:25.569Z,1008.7
2017-03-22T04:27:06.138Z,1008.71
2017-03-22T04:27:46.669Z,1008.7
2017-03-22T04:28:27.204Z,1008.71
2017-03-22T04:29:07.729Z,1008.71
2017-03-22T04:29:48.234Z,1008.71
2017-03-22T04:30:28.751Z,1008.72
2017-03-22T04:31:09.268Z,1008.73
2017-03-22T04:31:49.788Z,1008.72
2017-03-22T04:32:30.283Z,1008.72
2017-03-22T04:33:10.812Z,1008.71
2017-03-22T04:33:51.327Z,1008.71
2017-03-22T04:34:31.853Z,1008.67
2017-03-22T04:35:12.366Z,1008.71
2017-03-22T04:35:52.905Z,1008.72
2017-03-22T04:36:33.405Z,1008.71
2017-03-22T04:37:13.917Z,1008.67
2017-03-22T04:37:54.452Z,1008.67
2017-03-22T04:38:35.006Z,1008.7
2017-03-22T04:39:15.523Z,1008.68
2017-03-22T04:39:56.051Z,1008.65
2017-03-22T04:40:36.584Z,1008.66
2017-03-22T04:41:17.092Z,1008.62
2017-03-22T04:41:57.623Z,1008.62
2017-03-22T04:42:38.157Z,1008.63
2017-03-22T04:43:18.673Z,1008.64
2017-03-22T04:43:59.227Z,1008.64
2017-03-22T04:44:39.832Z,1008.62
2017-03-22T04:45:20.348Z,1008.62
2017-03-22T04:46:00.872Z,1008.63
2017-03-22T04:46:41.458Z,1008.63
2017-03-22T04:47:21.979Z,1008.6
2017-03-22T04:48:02.532Z,1008.63
2017-03-22T04:48:43.096Z,1008.66
2017-03-22T04:49:24.581Z,1008.64
2017-03-22T04:50:05.163Z,1008.69
2017-03-22T04:50:45.716Z,1008.7
2017-03-22T04:51:26.320Z,1008.7
2017-03-22T04:52:06.877Z,1008.71
2017-03-22T04:52:47.409Z,1008.69
2017-03-22T04:53:27.952Z,1008.67
2017-03-22T04:54:08.548Z,1008.69
2017-03-22T04:54:49.038Z,1008.65
2017-03-22T04:57:23.676Z,1008.63
2017-03-22T04:58:04.199Z,1008.68
2017-03-22T04:58:44.675Z,1008.65
2017-03-22T04:59:25.220Z,1008.7
2017-03-22T05:00:05.896Z,1008.68
2017-03-22T05:00:46.857Z,1008.64
2017-03-22T05:01:27.412Z,1008.66
2017-03-22T05:02:08.044Z,1008.68
2017-03-22T05:02:48.784Z,1008.68
2017-03-22T05:03:31.646Z,1008.69
2017-03-22T05:04:12.473Z,1008.65
2017-03-22T05:04:53.082Z,1008.69
2017-03-22T05:05:33.826Z,1008.68
2017-03-22T05:06:14.344Z,1008.67
2017-03-22T05:06:54.859Z,1008.65
2017-03-22T05:07:35.410Z,1008.69
2017-03-22T05:08:15.948Z,1008.67
2017-03-22T05:08:56.544Z,1008.67
2017-03-22T05:09:37.144Z,1008.66
2017-03-22T05:10:17.823Z,1008.67
2017-03-22T05:10:58.383Z,1008.66
2017-03-22T05:11:38.957Z,1008.66
2017-03-22T05:12:19.466Z,1008.66
2017-03-22T05:13:00.044Z,1008.65
2017-03-22T05:13:41.004Z,1008.69
2017-03-22T05:14:21.548Z,1008.7
2017-03-22T05:15:02.131Z,1008.69
2017-03-22T05:15:42.633Z,1008.7
2017-03-22T05:16:23.206Z,1008.68
2017-03-22T05:17:03.709Z,1008.69
2017-03-22T05:17:44.193Z,1008.62
2017-03-22T05:18:24.745Z,1008.64
2017-03-22T05:19:05.311Z,1008.65
2017-03-22T05:19:46.400Z,1008.65
2017-03-22T05:20:27.299Z,1008.64
2017-03-22T05:21:07.831Z,1008.64
2017-03-22T05:21:48.389Z,1008.64
2017-03-22T05:22:29.028Z,1008.68
2017-03-22T05:23:09.608Z,1008.68
2017-03-22T05:23:50.214Z,1008.71
2017-03-22T05:24:30.644Z,1008.68
2017-03-22T05:25:11.150Z,1008.67
2017-03-22T05:25:51.709Z,1008.65
2017-03-22T05:26:32.203Z,1008.64
2017-03-22T05:27:12.729Z,1008.67
2017-03-22T05:27:53.294Z,1008.7
2017-03-22T05:28:33.862Z,1008.68
2017-03-22T05:29:14.435Z,1008.66
2017-03-22T05:29:55.001Z,1008.67
2017-03-22T05:30:35.524Z,1008.68
2017-03-22T05:31:16.194Z,1008.68
2017-03-22T05:31:56.808Z,1008.71
2017-03-22T05:32:37.429Z,1008.73
2017-03-22T05:33:18.023Z,1008.74
2017-03-22T05:33:58.648Z,1008.75
2017-03-22T05:34:39.153Z,1008.74
2017-03-22T05:35:19.665Z,1008.72
2017-03-22T05:36:00.197Z,1008.78
2017-03-22T05:36:40.738Z,1008.78
2017-03-22T05:37:21.289Z,1008.77
2017-03-22T05:38:01.744Z,1008.75
2017-03-22T05:38:42.262Z,1008.72
2017-03-22T05:39:22.755Z,1008.72
2017-03-22T05:40:03.285Z,1008.69
2017-03-22T05:40:43.872Z,1008.74
2017-03-22T05:41:24.430Z,1008.71
2017-03-22T05:42:04.958Z,1008.67
2017-03-22T05:42:45.453Z,1008.71
2017-03-22T05:43:25.967Z,1008.71
2017-03-22T05:44:06.491Z,1008.7
2017-03-22T05:44:47.921Z,1008.7
2017-03-22T05:45:28.472Z,1008.69
2017-03-22T05:46:09.044Z,1008.71
2017-03-22T05:46:49.584Z,1008.7
2017-03-22T05:47:30.170Z,1008.7
2017-03-22T05:48:10.738Z,1008.65
2017-03-22T05:48:51.293Z,1008.71
2017-03-22T05:49:31.990Z,1008.69
2017-03-22T05:50:13.221Z,1008.7
2017-03-22T05:50:53.834Z,1008.69
2017-03-22T05:51:34.354Z,1008.7
2017-03-22T05:52:14.910Z,1008.66
2017-03-22T05:52:55.470Z,1008.69
2017-03-22T05:53:36.060Z,1008.67
2017-03-22T05:54:16.615Z,1008.67
2017-03-22T05:54:57.174Z,1008.71
2017-03-22T05:55:37.789Z,1008.66
2017-03-22T05:56:18.356Z,1008.67
2017-03-22T05:56:58.935Z,1008.64
2017-03-22T05:57:39.633Z,1008.64
2017-03-22T05:58:20.197Z,1008.66
2017-03-22T05:59:00.838Z,1008.68
2017-03-22T05:59:41.659Z,1008.64
2017-03-22T06:00:22.263Z,1008.61
2017-03-22T06:01:02.852Z,1008.62
2017-03-22T06:01:43.457Z,1008.56
2017-03-22T06:02:24.004Z,1008.57
2017-03-22T06:03:04.742Z,1008.6
2017-03-22T06:03:45.228Z,1008.58
2017-03-22T06:04:25.713Z,1008.57
2017-03-22T06:05:06.247Z,1008.55
2017-03-22T06:05:46.793Z,1008.58
2017-03-22T06:06:27.395Z,1008.62
2017-03-22T06:07:08.170Z,1008.56
2017-03-22T06:07:48.725Z,1008.58
2017-03-22T06:08:29.310Z,1008.59
2017-03-22T06:09:10.031Z,1008.62
2017-03-22T06:09:50.822Z,1008.6
2017-03-22T06:10:31.494Z,1008.58
2017-03-22T06:11:12.080Z,1008.6
2017-03-22T06:11:52.804Z,1008.6
2017-03-22T06:12:33.321Z,1008.6
2017-03-22T06:13:13.879Z,1008.58
2017-03-22T06:13:54.390Z,1008.62
2017-03-22T06:14:34.885Z,1008.61
2017-03-22T06:15:15.413Z,1008.58
2017-03-22T06:15:55.908Z,1008.61
2017-03-22T06:16:36.490Z,1008.64
2017-03-22T06:17:17.007Z,1008.61
2017-03-22T06:17:57.622Z,1008.61
2017-03-22T06:18:38.022Z,1008.61
2017-03-22T06:19:18.553Z,1008.63
2017-03-22T06:19:59.916Z,1008.63
2017-03-22T06:20:40.466Z,1008.64
2017-03-22T06:21:20.970Z,1008.66
2017-03-22T06:22:01.497Z,1008.63
2017-03-22T06:22:42.016Z,1008.63
2017-03-22T06:23:22.540Z,1008.62
2017-03-22T06:24:03.066Z,1008.7
2017-03-22T06:24:43.579Z,1008.67
2017-03-22T06:25:24.098Z,1008.7
2017-03-22T06:26:04.605Z,1008.7
2017-03-22T06:26:45.140Z,1008.69
2017-03-22T06:27:25.644Z,1008.7
2017-03-22T06:28:06.159Z,1008.72
2017-03-22T06:28:46.657Z,1008.69
2017-03-22T06:29:27.184Z,1008.71
2017-03-22T06:30:07.710Z,1008.72
2017-03-22T06:30:48.222Z,1008.71
2017-03-22T06:31:28.757Z,1008.73
2017-03-22T06:32:09.264Z,1008.71
2017-03-22T06:32:49.795Z,1008.73
2017-03-22T06:33:30.299Z,1008.78
2017-03-22T06:34:10.827Z,1008.71
2017-03-22T06:34:51.310Z,1008.75
2017-03-22T06:35:32.418Z,1008.7
2017-03-22T06:36:12.955Z,1008.74
2017-03-22T06:36:53.461Z,1008.71
2017-03-22T06:37:34.891Z,1008.73
2017-03-22T06:38:15.422Z,1008.68
2017-03-22T06:38:55.932Z,1008.75
2017-03-22T06:39:36.425Z,1008.71
2017-03-22T06:40:16.934Z,1008.76
2017-03-22T06:40:57.439Z,1008.75
2017-03-22T06:41:37.945Z,1008.78
2017-03-22T06:42:18.468Z,1008.77
2017-03-22T06:42:58.988Z,1008.73
2017-03-22T06:43:39.500Z,1008.75
2017-03-22T06:44:20.008Z,1008.77
2017-03-22T06:45:00.513Z,1008.78
2017-03-22T06:45:41.033Z,1008.75
2017-03-22T06:46:21.541Z,1008.77
2017-03-22T06:47:02.067Z,1008.79
2017-03-22T06:47:42.554Z,1008.75
2017-03-22T06:48:23.810Z,1008.76
2017-03-22T06:49:04.578Z,1008.79
2017-03-22T06:49:45.102Z,1008.79
2017-03-22T06:50:25.620Z,1008.77
2017-03-22T06:51:06.136Z,1008.74
2017-03-22T06:51:46.637Z,1008.72
2017-03-22T06:52:27.160Z,1008.72
2017-03-22T06:53:07.669Z,1008.72
2017-03-22T06:53:48.190Z,1008.69
2017-03-22T06:54:28.699Z,1008.7
2017-03-22T06:55:09.227Z,1008.69
2017-03-22T06:55:49.724Z,1008.69
2017-03-22T06:56:30.256Z,1008.7
2017-03-22T06:57:10.775Z,1008.67
2017-03-22T06:57:51.264Z,1008.7
2017-03-22T06:58:31.775Z,1008.68
2017-03-22T06:59:12.299Z,1008.69
2017-03-22T06:59:52.825Z,1008.73
2017-03-22T07:00:33.306Z,1008.7
2017-03-22T07:01:13.836Z,1008.74
2017-03-22T07:01:54.390Z,1008.74
2017-03-22T07:02:34.919Z,1008.75
2017-03-22T07:03:15.587Z,1008.76
2017-03-22T07:03:56.293Z,1008.77
2017-03-22T07:04:36.825Z,1008.79
2017-03-22T07:05:17.311Z,1008.83
2017-03-22T07:05:57.835Z,1008.79
2017-03-22T07:06:38.338Z,1008.8
2017-03-22T07:07:18.871Z,1008.81
2017-03-22T07:07:59.361Z,1008.74
2017-03-22T07:08:39.885Z,1008.79
2017-03-22T07:09:20.415Z,1008.75
2017-03-22T07:10:00.922Z,1008.75
2017-03-22T07:10:41.412Z,1008.79
2017-03-22T07:11:21.951Z,1008.76
2017-03-22T07:12:02.459Z,1008.77
2017-03-22T07:12:43.097Z,1008.76
2017-03-22T07:13:23.693Z,1008.8
2017-03-22T07:14:04.246Z,1008.75
2017-03-22T07:14:44.807Z,1008.79
2017-03-22T07:15:25.343Z,1008.77
2017-03-22T07:16:05.850Z,1008.79
2017-03-22T07:16:46.363Z,1008.78
2017-03-22T07:17:26.871Z,1008.75
2017-03-22T07:18:07.404Z,1008.76
2017-03-22T07:18:47.934Z,1008.77
2017-03-22T07:19:28.414Z,1008.72
2017-03-22T07:20:08.937Z,1008.69
2017-03-22T07:20:49.457Z,1008.69
2017-03-22T07:21:29.966Z,1008.72
2017-03-22T07:22:10.494Z,1008.74
2017-03-22T07:22:51.016Z,1008.74
2017-03-22T07:23:31.519Z,1008.77
2017-03-22T07:24:12.043Z,1008.73
2017-03-22T07:24:52.569Z,1008.73
2017-03-22T07:25:33.063Z,1008.75
2017-03-22T07:26:13.563Z,1008.73
2017-03-22T07:26:54.086Z,1008.72
2017-03-22T07:27:34.593Z,1008.75
2017-03-22T07:28:15.118Z,1008.72
2017-03-22T07:28:55.621Z,1008.73
2017-03-22T07:29:36.130Z,1008.71
2017-03-22T07:30:16.666Z,1008.73
2017-03-22T07:30:57.170Z,1008.75
2017-03-22T07:31:37.713Z,1008.72
2017-03-22T07:32:18.241Z,1008.73
2017-03-22T07:32:58.754Z,1008.75
2017-03-22T07:33:39.267Z,1008.74
2017-03-22T07:34:19.770Z,1008.72
2017-03-22T07:35:00.276Z,1008.74
2017-03-22T07:35:40.784Z,1008.71
2017-03-22T07:36:21.288Z,1008.71
2017-03-22T07:37:01.798Z,1008.72
2017-03-22T07:37:42.297Z,1008.74
2017-03-22T07:38:22.820Z,1008.71
2017-03-22T07:39:03.329Z,1008.73
2017-03-22T07:39:43.811Z,1008.73
2017-03-22T07:40:24.344Z,1008.7
2017-03-22T07:41:04.821Z,1008.73
2017-03-22T07:41:45.344Z,1008.76
2017-03-22T07:42:25.888Z,1008.67
2017-03-22T07:43:06.416Z,1008.71
2017-03-22T07:43:46.932Z,1008.71
2017-03-22T07:44:27.456Z,1008.7
2017-03-22T07:45:08.004Z,1008.71
2017-03-22T07:45:48.516Z,1008.76
2017-03-22T07:46:29.006Z,1008.71
2017-03-22T07:47:09.524Z,1008.71
2017-03-22T07:47:50.038Z,1008.73
2017-03-22T07:48:30.564Z,1008.71
2017-03-22T07:49:11.061Z,1008.72
2017-03-22T07:49:51.573Z,1008.71
2017-03-22T07:50:32.069Z,1008.71
2017-03-22T07:51:12.565Z,1008.71
2017-03-22T07:51:53.085Z,1008.66
2017-03-22T07:52:33.603Z,1008.71
2017-03-22T07:53:14.136Z,1008.74
2017-03-22T07:53:54.619Z,1008.76
2017-03-22T07:54:35.146Z,1008.74
2017-03-22T07:55:15.641Z,1008.77
2017-03-22T07:55:56.162Z,1008.76
2017-03-22T07:56:36.692Z,1008.75
2017-03-22T07:57:17.186Z,1008.78
2017-03-22T07:57:57.695Z,1008.77
2017-03-22T07:58:38.217Z,1008.77
2017-03-22T07:59:18.730Z,1008.75
2017-03-22T07:59:59.253Z,1008.75
2017-03-22T08:00:39.751Z,1008.75
2017-03-22T08:01:20.256Z,1008.74
2017-03-22T08:02:00.770Z,1008.73
2017-03-22T08:02:41.293Z,1008.72
2017-03-22T08:03:21.817Z,1008.75
2017-03-22T08:04:02.339Z,1008.76
2017-03-22T08:04:42.850Z,1008.76
2017-03-22T08:05:23.398Z,1008.75
2017-03-22T08:06:03.876Z,1008.76
2017-03-22T08:06:44.392Z,1008.73
2017-03-22T08:07:24.900Z,1008.7
2017-03-22T08:08:05.402Z,1008.67
2017-03-22T08:08:45.948Z,1008.68
2017-03-22T08:09:26.480Z,1008.69
2017-03-22T08:10:06.988Z,1008.76
2017-03-22T08:10:47.497Z,1008.69
2017-03-22T08:11:28.015Z,1008.7
2017-03-22T08:12:08.523Z,1008.65
2017-03-22T08:12:49.040Z,1008.66
2017-03-22T08:13:29.574Z,1008.68
2017-03-22T08:14:10.084Z,1008.71